Time;durP1;ratioP1;P1;durP2;ratioP2;P2;SDS_P1;SDS_P2;PMS_P1;PMS_P2;Temp;Humidity;BMP_temperature;BMP_pressure;BME280_temperature;BME280_humidity;BME280_pressure;Samples;Min_cycle;Max_cycle;Signal;HPM_P1;HPM_P2
2024/02/04 00:01:15;;;;;;;11.70;4.77;;;8.50;99.90;;;;;;5032131;28;20451;-76
2024/02/04 00:03:43;;;;;;;7.50;4.50;;;8.50;99.90;;;;;;5033295;28;20458;-76
2024/02/04 00:06:11;;;;;;;10.60;5.57;;;8.40;99.90;;;;;;5033269;28;20439;-76
2024/02/04 00:08:40;;;;;;;10.10;4.83;;;8.40;99.90;;;;;;5032018;28;20881;-76
2024/02/04 00:11:11;;;;;;;11.47;5.17;;;8.40;99.90;;;;;;5031986;28;20451;-76
2024/02/04 00:13:40;;;;;;;9.57;5.60;;;8.40;99.90;;;;;;5032019;28;20983;-76
2024/02/04 00:16:09;;;;;;;9.83;6.53;;;8.40;99.90;;;;;;5031980;28;20532;-76
2024/02/04 00:18:38;;;;;;;9.23;5.00;;;8.40;99.90;;;;;;5032088;28;20470;-76
2024/02/04 00:21:06;;;;;;;10.70;5.63;;;8.40;99.90;;;;;;5031805;28;20443;-76
2024/02/04 00:23:34;;;;;;;10.60;5.63;;;8.30;99.90;;;;;;5031757;28;20478;-76
2024/02/04 00:26:03;;;;;;;12.83;6.07;;;8.30;99.90;;;;;;5033057;28;20969;-76
2024/02/04 00:28:31;;;;;;;8.53;5.97;;;8.30;99.90;;;;;;5031948;28;20508;-76
2024/02/04 00:30:59;;;;;;;9.93;6.23;;;8.30;99.90;;;;;;5031777;28;20471;-76
2024/02/04 00:33:29;;;;;;;12.47;7.00;;;8.30;99.90;;;;;;5031681;28;20462;-76
2024/02/04 00:35:57;;;;;;;10.50;6.23;;;8.30;99.90;;;;;;5031778;28;20499;-76
2024/02/04 00:38:25;;;;;;;13.23;8.40;;;8.20;99.90;;;;;;5031725;28;20501;-76
2024/02/04 00:40:54;;;;;;;11.83;7.43;;;8.20;99.90;;;;;;5032914;28;20446;-76
2024/02/04 00:43:22;;;;;;;11.77;7.73;;;8.20;99.90;;;;;;5031518;28;20451;-76
2024/02/04 00:45:51;;;;;;;14.80;8.00;;;8.20;99.90;;;;;;5031663;28;20500;-76
2024/02/04 00:48:19;;;;;;;12.47;7.73;;;8.20;99.90;;;;;;5031632;28;20505;-76
2024/02/04 00:50:48;;;;;;;13.37;7.93;;;8.10;99.90;;;;;;5031599;28;20530;-76
2024/02/04 00:53:16;;;;;;;9.90;7.47;;;8.10;99.90;;;;;;5033822;28;20509;-76
2024/02/04 00:55:44;;;;;;;13.47;8.77;;;8.10;99.90;;;;;;5036663;28;20435;-76
2024/02/04 00:58:13;;;;;;;14.13;8.80;;;8.10;99.90;;;;;;5035257;28;20510;-76
2024/02/04 01:00:41;;;;;;;11.43;8.60;;;8.10;99.90;;;;;;5035252;28;20453;-76
2024/02/04 01:03:09;;;;;;;11.93;8.07;;;8.10;99.90;;;;;;5036487;28;20435;-76
2024/02/04 01:05:38;;;;;;;12.23;9.00;;;8.00;99.90;;;;;;5036257;28;20451;-76
2024/02/04 01:08:08;;;;;;;10.33;8.97;;;8.00;99.90;;;;;;5036706;28;20857;-76
2024/02/04 01:10:36;;;;;;;13.93;10.10;;;8.00;99.90;;;;;;5035147;28;20469;-76
2024/02/04 01:13:05;;;;;;;12.77;9.43;;;8.00;99.90;;;;;;5034896;28;20459;-76
2024/02/04 01:15:33;;;;;;;16.63;9.97;;;8.00;99.90;;;;;;5036556;28;20924;-76
2024/02/04 01:18:01;;;;;;;15.30;9.70;;;8.00;99.90;;;;;;5034886;28;20443;-76
2024/02/04 01:20:30;;;;;;;11.17;9.33;;;8.00;99.90;;;;;;5035002;28;20453;-76
2024/02/04 01:22:58;;;;;;;15.13;10.70;;;7.90;99.90;;;;;;5036434;28;20439;-76
2024/02/04 01:25:27;;;;;;;13.37;10.33;;;7.90;99.90;;;;;;5034806;28;20459;-77
2024/02/04 01:27:55;;;;;;;15.10;9.90;;;7.90;99.90;;;;;;5036169;28;20442;-76
2024/02/04 01:30:24;;;;;;;13.70;10.60;;;7.90;99.90;;;;;;5036102;28;20530;-77
2024/02/04 01:32:52;;;;;;;15.90;10.30;;;7.90;99.90;;;;;;5034790;28;20447;-77
2024/02/04 01:35:21;;;;;;;13.90;11.07;;;7.90;99.90;;;;;;5034640;28;21015;-77
2024/02/04 01:37:49;;;;;;;17.53;11.33;;;7.90;99.90;;;;;;5034714;28;20442;-76
2024/02/04 01:40:17;;;;;;;16.73;11.63;;;7.90;99.90;;;;;;5034526;28;20481;-76
2024/02/04 01:42:47;;;;;;;18.73;11.77;;;7.90;99.90;;;;;;5034822;28;20496;-76
2024/02/04 01:45:15;;;;;;;18.83;12.20;;;7.90;99.90;;;;;;5034729;28;20557;-76
2024/02/04 01:47:44;;;;;;;15.17;10.97;;;7.90;99.90;;;;;;5035757;28;20493;-76
2024/02/04 01:50:12;;;;;;;16.13;11.90;;;7.90;99.90;;;;;;5034493;28;20554;-76
2024/02/04 01:52:42;;;;;;;13.67;11.33;;;7.90;99.90;;;;;;5034481;28;20951;-76
2024/02/04 01:55:10;;;;;;;16.50;10.87;;;7.90;99.90;;;;;;5034451;28;20475;-76
2024/02/04 01:57:38;;;;;;;14.23;10.73;;;7.90;99.90;;;;;;5034601;28;20477;-76
2024/02/04 02:00:10;;;;;;;15.37;11.50;;;7.90;99.90;;;;;;5034279;28;20557;-76
2024/02/04 02:02:41;;;;;;;13.10;10.77;;;8.00;99.90;;;;;;5034254;28;20439;-76
2024/02/04 02:05:09;;;;;;;12.30;10.23;;;8.00;99.90;;;;;;5034482;28;20458;-76
2024/02/04 02:07:38;;;;;;;13.60;11.30;;;8.00;99.90;;;;;;5035601;28;20438;-76
2024/02/04 02:10:10;;;;;;;15.90;11.43;;;8.00;99.90;;;;;;5034122;28;20504;-76
2024/02/04 02:12:43;;;;;;;17.10;12.27;;;8.00;99.90;;;;;;5033982;28;20458;-76
2024/02/04 02:15:16;;;;;;;14.03;11.47;;;8.00;99.90;;;;;;5033928;28;20585;-76
2024/02/04 02:17:49;;;;;;;15.10;11.30;;;8.00;99.90;;;;;;5034011;28;20881;-76
2024/02/04 02:20:22;;;;;;;15.33;10.97;;;8.00;99.90;;;;;;5033820;28;20509;-76
2024/02/04 02:22:51;;;;;;;14.33;10.93;;;7.90;99.90;;;;;;5033877;28;20439;-76
2024/02/04 02:25:22;;;;;;;15.33;10.97;;;7.90;99.90;;;;;;5033763;28;20494;-77
2024/02/04 02:27:51;;;;;;;15.57;10.87;;;7.90;99.90;;;;;;5035042;28;20434;-76
2024/02/04 02:30:20;;;;;;;13.27;10.40;;;7.90;99.90;;;;;;5034943;28;20492;-76
2024/02/04 02:32:50;;;;;;;16.40;10.63;;;7.90;99.90;;;;;;5033554;28;20960;-76
2024/02/04 02:35:19;;;;;;;14.33;10.70;;;7.90;99.90;;;;;;5033525;28;20552;-76
2024/02/04 02:37:57;;;;;;;12.90;10.33;;;7.90;99.90;;;;;;5033574;28;20453;-76
2024/02/04 02:40:33;;;;;;;13.37;10.30;;;7.90;99.90;;;;;;5033428;28;20492;-76
2024/02/04 02:43:04;;;;;;;14.60;10.03;;;7.80;99.90;;;;;;5035215;28;20472;-76
2024/02/04 02:45:32;;;;;;;15.47;9.67;;;7.80;99.90;;;;;;5033291;28;20450;-76
2024/02/04 02:48:01;;;;;;;18.03;9.47;;;7.80;99.90;;;;;;5033629;28;20811;-76
2024/02/04 02:50:30;;;;;;;15.20;10.23;;;7.80;99.90;;;;;;5034491;28;20439;-76
2024/02/04 02:52:58;;;;;;;16.57;9.30;;;7.80;99.90;;;;;;5033241;28;20536;-76
2024/02/04 02:55:28;;;;;;;15.40;9.37;;;7.80;99.90;;;;;;5033328;28;20471;-76
2024/02/04 02:57:56;;;;;;;13.23;8.57;;;7.70;99.90;;;;;;5033117;28;20968;-76
2024/02/04 03:00:24;;;;;;;11.83;8.03;;;7.70;99.90;;;;;;5034504;28;20825;-76
2024/02/04 03:02:53;;;;;;;13.33;8.50;;;7.70;99.90;;;;;;5033213;28;20501;-76
2024/02/04 03:05:21;;;;;;;11.00;7.57;;;7.70;99.90;;;;;;5033007;28;20467;-76
2024/02/04 03:07:49;;;;;;;11.83;6.83;;;7.70;99.90;;;;;;5034244;28;20441;-76
2024/02/04 03:10:18;;;;;;;12.23;7.53;;;7.60;99.90;;;;;;5032871;28;20505;-76
2024/02/04 03:12:47;;;;;;;12.00;7.20;;;7.60;99.90;;;;;;5032911;28;20469;-76
2024/02/04 03:15:16;;;;;;;12.20;7.03;;;7.60;99.90;;;;;;5032934;28;20482;-76
2024/02/04 03:17:44;;;;;;;14.90;7.43;;;7.60;99.90;;;;;;5032996;28;20971;-75
2024/02/04 03:20:13;;;;;;;10.37;6.70;;;7.60;99.90;;;;;;5032763;28;20471;-76
2024/02/04 03:22:42;;;;;;;11.00;6.90;;;7.60;99.90;;;;;;5032719;28;20549;-76
2024/02/04 03:25:11;;;;;;;10.20;5.70;;;7.50;99.90;;;;;;5032840;28;20584;-76
2024/02/04 03:27:40;;;;;;;11.43;6.93;;;7.50;99.90;;;;;;5032860;28;20450;-76
2024/02/04 03:30:11;;;;;;;10.20;5.57;;;7.50;99.90;;;;;;5033186;28;20458;-76
2024/02/04 03:32:39;;;;;;;10.43;6.50;;;7.50;99.90;;;;;;5032808;28;20814;-76
2024/02/04 03:35:09;;;;;;;10.17;5.67;;;7.40;99.90;;;;;;5032516;28;20478;-76
2024/02/04 03:37:37;;;;;;;12.23;6.33;;;7.40;99.90;;;;;;5032458;28;20448;-76
2024/02/04 03:40:06;;;;;;;12.10;6.07;;;7.40;99.90;;;;;;5032396;28;20530;-76
2024/02/04 03:42:35;;;;;;;11.13;5.70;;;7.40;99.90;;;;;;5032403;28;20438;-76
2024/02/04 03:45:04;;;;;;;11.20;5.83;;;7.40;99.90;;;;;;5032433;28;20553;-76
2024/02/04 03:47:34;;;;;;;11.30;5.30;;;7.40;99.90;;;;;;5032381;28;20450;-76
2024/02/04 03:50:03;;;;;;;10.80;5.13;;;7.40;99.90;;;;;;5032322;28;20444;-76
2024/02/04 03:52:32;;;;;;;9.13;5.40;;;7.40;99.90;;;;;;5032294;28;20450;-76
2024/02/04 03:55:00;;;;;;;11.20;6.30;;;7.40;99.90;;;;;;5032183;28;20473;-76
2024/02/04 03:57:31;;;;;;;8.47;6.03;;;7.30;99.90;;;;;;5032250;28;20445;-76
2024/02/04 03:59:59;;;;;;;10.17;5.63;;;7.30;99.90;;;;;;5032108;28;20524;-76
2024/02/04 04:02:27;;;;;;;9.27;5.60;;;7.30;99.90;;;;;;5033727;28;20928;-76
2024/02/04 04:04:57;;;;;;;11.70;6.03;;;7.30;99.90;;;;;;5031990;28;20577;-76
2024/02/04 04:07:25;;;;;;;14.57;5.60;;;7.30;99.90;;;;;;5032055;28;20447;-76
2024/02/04 04:09:53;;;;;;;11.70;5.03;;;7.20;99.90;;;;;;5032113;28;20450;-76
2024/02/04 04:12:22;;;;;;;11.80;4.90;;;7.20;99.90;;;;;;5032063;28;20461;-76
2024/02/04 04:14:50;;;;;;;10.97;5.73;;;7.20;99.90;;;;;;5032027;28;21003;-76
2024/02/04 04:17:18;;;;;;;13.30;4.90;;;7.20;99.90;;;;;;5033235;28;20435;-76
2024/02/04 04:19:46;;;;;;;10.33;5.33;;;7.20;99.90;;;;;;5032090;28;20501;-76
2024/02/04 04:22:16;;;;;;;11.53;5.00;;;7.20;99.90;;;;;;5032180;28;20456;-76
2024/02/04 04:24:44;;;;;;;9.20;4.13;;;7.20;99.90;;;;;;5031815;28;20478;-76
2024/02/04 04:27:13;;;;;;;11.23;5.10;;;7.20;99.90;;;;;;5032389;28;20485;-76
2024/02/04 04:29:41;;;;;;;8.47;4.60;;;7.20;99.90;;;;;;5037260;28;20444;-76
2024/02/04 04:32:09;;;;;;;10.77;4.63;;;7.20;99.90;;;;;;5037156;28;20502;-76
2024/02/04 04:34:37;;;;;;;10.90;4.47;;;7.20;99.90;;;;;;5035794;28;20473;-75
2024/02/04 04:37:06;;;;;;;8.57;4.20;;;7.10;99.90;;;;;;5037469;28;20545;-76
2024/02/04 04:39:36;;;;;;;11.07;4.77;;;7.10;99.90;;;;;;5035996;28;20496;-77
2024/02/04 04:42:05;;;;;;;7.77;3.83;;;7.10;99.90;;;;;;5035889;28;20573;-77
2024/02/04 04:44:32;;;;;;;10.10;4.27;;;7.10;99.90;;;;;;5036327;28;20509;-76
2024/02/04 04:47:00;;;;;;;10.70;4.13;;;7.10;99.90;;;;;;5037369;28;20946;-77
2024/02/04 04:49:28;;;;;;;9.03;4.00;;;7.10;99.90;;;;;;5036005;28;20508;-76
2024/02/04 04:51:57;;;;;;;11.40;3.80;;;7.10;99.90;;;;;;5035746;28;20581;-76
2024/02/04 04:54:25;;;;;;;12.00;3.80;;;7.10;99.90;;;;;;5035550;28;20471;-76
2024/02/04 04:56:54;;;;;;;12.90;3.83;;;7.10;99.90;;;;;;5035518;28;20515;-77
2024/02/04 04:59:23;;;;;;;7.73;3.67;;;7.10;99.90;;;;;;5036688;28;20477;-77
2024/02/04 05:01:51;;;;;;;8.30;3.40;;;7.00;99.90;;;;;;5036875;28;20490;-77
2024/02/04 05:04:19;;;;;;;11.67;3.30;;;7.00;99.90;;;;;;5036702;28;20486;-76
2024/02/04 05:06:48;;;;;;;16.00;3.83;;;7.00;99.90;;;;;;5037132;28;20446;-76
2024/02/04 05:09:16;;;;;;;8.10;3.33;;;7.00;99.90;;;;;;5036610;28;20453;-77
2024/02/04 05:11:44;;;;;;;11.70;3.53;;;7.00;99.90;;;;;;5036367;28;20462;-76
2024/02/04 05:14:14;;;;;;;11.07;4.30;;;7.00;99.90;;;;;;5035105;28;20492;-76
2024/02/04 05:16:44;;;;;;;10.80;3.50;;;7.00;99.90;;;;;;5036503;28;20440;-76
2024/02/04 05:19:12;;;;;;;7.77;3.70;;;7.00;99.90;;;;;;5035081;28;20544;-76
2024/02/04 05:21:41;;;;;;;7.50;3.30;;;7.00;99.90;;;;;;5036510;28;20564;-76
2024/02/04 05:24:09;;;;;;;11.77;4.00;;;7.00;99.90;;;;;;5034926;28;21007;-76
2024/02/04 05:26:38;;;;;;;8.07;3.10;;;7.00;99.90;;;;;;5036196;28;20445;-76
2024/02/04 05:29:06;;;;;;;7.50;3.20;;;7.00;99.90;;;;;;5034928;28;20523;-76
2024/02/04 05:31:42;;;;;;;7.40;3.57;;;7.00;99.90;;;;;;5036397;28;20442;-76
2024/02/04 05:34:10;;;;;;;8.00;3.90;;;7.00;99.90;;;;;;5036498;28;20473;-76
2024/02/04 05:36:38;;;;;;;9.00;3.50;;;7.00;99.90;;;;;;5036003;28;20442;-76
2024/02/04 05:39:11;;;;;;;9.03;3.40;;;7.00;99.90;;;;;;5033364;28;20549;-76
2024/02/04 05:41:39;;;;;;;12.40;3.37;;;7.00;99.90;;;;;;5035917;28;20881;-76
2024/02/04 05:44:08;;;;;;;9.10;3.63;;;7.00;99.90;;;;;;5034855;28;20871;-76
2024/02/04 05:46:39;;;;;;;8.53;3.10;;;7.00;99.90;;;;;;5034906;28;20880;-76
2024/02/04 05:49:08;;;;;;;8.97;3.67;;;7.00;99.90;;;;;;5034591;28;20458;-76
2024/02/04 05:51:40;;;;;;;8.70;3.20;;;7.00;99.90;;;;;;5034506;28;20450;-76
2024/02/04 05:54:09;;;;;;;9.37;3.60;;;7.00;99.90;;;;;;5034348;28;20469;-76
2024/02/04 05:56:37;;;;;;;7.23;3.50;;;7.00;99.90;;;;;;5035982;28;20500;-76
2024/02/04 05:59:06;;;;;;;10.73;3.43;;;7.00;99.90;;;;;;5034368;28;20458;-76
2024/02/04 06:01:34;;;;;;;11.93;3.63;;;7.00;99.90;;;;;;5034269;28;20481;-76
2024/02/04 06:04:04;;;;;;;8.13;4.40;;;7.00;99.90;;;;;;5034262;28;20988;-76
2024/02/04 06:06:32;;;;;;;7.70;3.20;;;7.00;99.90;;;;;;5034210;28;20449;-76
2024/02/04 06:09:01;;;;;;;8.93;3.80;;;7.00;99.90;;;;;;5034155;28;20552;-76
2024/02/04 06:11:29;;;;;;;6.67;3.47;;;7.00;99.90;;;;;;5035414;28;20522;-76
2024/02/04 06:13:58;;;;;;;6.73;3.90;;;7.00;99.90;;;;;;5033877;28;21051;-76
2024/02/04 06:16:26;;;;;;;12.07;4.00;;;7.00;99.90;;;;;;5034117;28;20499;-76
2024/02/04 06:18:57;;;;;;;11.10;4.73;;;7.00;99.90;;;;;;5035624;28;20817;-76
2024/02/04 06:21:27;;;;;;;7.53;3.77;;;7.00;99.90;;;;;;5035467;28;20486;-76
2024/02/04 06:23:56;;;;;;;12.20;5.27;;;7.00;99.90;;;;;;5033991;28;21006;-76
2024/02/04 06:26:24;;;;;;;9.37;4.00;;;7.00;99.90;;;;;;5035084;28;20544;-76
2024/02/04 06:28:53;;;;;;;11.27;4.50;;;7.00;99.90;;;;;;5033819;28;20504;-76
2024/02/04 06:31:21;;;;;;;8.30;4.07;;;7.00;99.90;;;;;;5033778;28;20508;-76
2024/02/04 06:33:49;;;;;;;10.13;5.00;;;7.00;99.90;;;;;;5033645;28;20493;-76
2024/02/04 06:36:18;;;;;;;9.90;5.10;;;7.00;99.90;;;;;;5033655;28;20561;-76
2024/02/04 06:38:47;;;;;;;8.60;5.07;;;7.00;99.90;;;;;;5033870;28;20856;-77
2024/02/04 06:41:15;;;;;;;9.70;5.80;;;7.00;99.90;;;;;;5035137;28;20469;-77
2024/02/04 06:43:44;;;;;;;10.83;6.20;;;7.00;99.90;;;;;;5034690;28;20500;-76
2024/02/04 06:46:12;;;;;;;11.80;5.83;;;7.00;99.90;;;;;;5035599;28;21010;-76
2024/02/04 06:48:40;;;;;;;9.73;6.20;;;7.00;99.90;;;;;;5033430;28;20454;-76
2024/02/04 06:51:08;;;;;;;12.67;5.80;;;7.00;99.90;;;;;;5032967;28;20458;-76
2024/02/04 06:53:37;;;;;;;7.33;6.17;;;7.00;99.90;;;;;;5033244;28;20524;-76
2024/02/04 06:56:07;;;;;;;17.40;7.33;;;7.00;99.90;;;;;;5034805;28;20452;-76
2024/02/04 06:58:38;;;;;;;10.97;5.73;;;7.10;99.90;;;;;;5033255;28;20492;-76
2024/02/04 07:01:06;;;;;;;12.83;6.70;;;7.00;99.90;;;;;;5033178;28;20456;-76
2024/02/04 07:03:34;;;;;;;12.50;6.53;;;7.00;99.90;;;;;;5033076;28;20465;-75
2024/02/04 07:06:03;;;;;;;10.70;6.70;;;7.10;99.90;;;;;;5033126;28;20455;-76
2024/02/04 07:08:31;;;;;;;10.20;6.00;;;7.10;99.90;;;;;;5034286;28;20500;-76
2024/02/04 07:10:59;;;;;;;9.63;6.43;;;7.10;99.90;;;;;;5034530;28;20446;-76
2024/02/04 07:13:29;;;;;;;11.07;6.10;;;7.10;99.90;;;;;;5034185;28;21191;-76
2024/02/04 07:15:57;;;;;;;11.70;6.80;;;7.10;99.90;;;;;;5033004;28;20940;-77
2024/02/04 07:18:26;;;;;;;13.83;7.20;;;7.10;99.90;;;;;;5034214;28;20461;-76
2024/02/04 07:20:54;;;;;;;10.60;5.80;;;7.10;99.90;;;;;;5033190;28;20528;-76
2024/02/04 07:23:22;;;;;;;13.10;6.33;;;7.10;99.90;;;;;;5033910;28;20570;-76
2024/02/04 07:25:50;;;;;;;14.33;6.40;;;7.10;99.90;;;;;;5034151;28;20442;-76
2024/02/04 07:28:19;;;;;;;8.50;6.27;;;7.10;99.90;;;;;;5034021;28;20446;-76
2024/02/04 07:30:48;;;;;;;13.27;5.80;;;7.20;99.90;;;;;;5032703;28;20453;-76
2024/02/04 07:33:16;;;;;;;11.27;6.37;;;7.20;99.90;;;;;;5032802;28;20451;-76
2024/02/04 07:35:45;;;;;;;9.27;5.20;;;7.20;99.90;;;;;;5032486;28;20453;-77
2024/02/04 07:38:13;;;;;;;7.90;5.20;;;7.20;99.90;;;;;;5032402;28;20457;-76
2024/02/04 07:40:41;;;;;;;11.30;6.40;;;7.20;99.90;;;;;;5033685;28;20442;-76
2024/02/04 07:43:09;;;;;;;11.80;5.77;;;7.20;99.90;;;;;;5032264;28;20501;-77
2024/02/04 07:45:38;;;;;;;13.90;6.13;;;7.20;99.90;;;;;;5032333;28;20458;-76
2024/02/04 07:48:09;;;;;;;9.67;5.80;;;7.20;99.90;;;;;;5032361;28;20460;-76
2024/02/04 07:50:37;;;;;;;10.83;5.60;;;7.20;99.90;;;;;;5032195;28;20531;-76
2024/02/04 07:53:05;;;;;;;9.50;5.03;;;7.30;99.90;;;;;;5033431;28;20527;-76
2024/02/04 07:55:34;;;;;;;10.73;5.17;;;7.30;99.90;;;;;;5033750;28;20446;-76
2024/02/04 07:58:02;;;;;;;12.17;5.13;;;7.30;99.90;;;;;;5033377;28;20442;-76
2024/02/04 08:00:30;;;;;;;12.23;5.00;;;7.30;99.90;;;;;;5033627;28;20442;-76
2024/02/04 08:02:58;;;;;;;8.63;4.80;;;7.30;99.90;;;;;;5031282;28;20477;-76
2024/02/04 08:05:28;;;;;;;14.43;4.60;;;7.30;99.90;;;;;;5032241;28;20821;-76
2024/02/04 08:07:56;;;;;;;13.50;5.83;;;7.30;99.90;;;;;;5032131;28;20454;-77
2024/02/04 08:10:25;;;;;;;12.37;5.67;;;7.40;99.90;;;;;;5032074;28;20445;-76
2024/02/04 08:12:53;;;;;;;11.33;4.67;;;7.40;99.90;;;;;;5033344;28;20450;-76
2024/02/04 08:15:22;;;;;;;9.43;4.10;;;7.40;99.90;;;;;;5031898;28;20466;-76
2024/02/04 08:17:50;;;;;;;8.97;4.07;;;7.40;99.90;;;;;;5032542;28;20500;-77
2024/02/04 08:20:20;;;;;;;8.50;3.50;;;7.40;99.90;;;;;;5033159;28;20438;-76
2024/02/04 08:22:50;;;;;;;11.53;3.83;;;7.40;99.90;;;;;;5033675;28;20462;-76
2024/02/04 08:25:18;;;;;;;12.70;3.73;;;7.40;99.90;;;;;;5033058;28;20556;-76
2024/02/04 08:27:47;;;;;;;13.37;4.67;;;7.40;99.90;;;;;;5031862;28;20480;-76
2024/02/04 08:30:16;;;;;;;6.40;3.80;;;7.40;99.90;;;;;;5031792;28;20959;-76
2024/02/04 08:32:45;;;;;;;9.60;3.83;;;7.50;99.90;;;;;;5031789;28;20446;-76
2024/02/04 08:35:13;;;;;;;9.33;3.27;;;7.50;99.90;;;;;;5032924;28;20468;-76
2024/02/04 08:37:42;;;;;;;8.53;3.40;;;7.50;99.90;;;;;;5032983;28;20470;-76
2024/02/04 08:40:12;;;;;;;9.10;3.60;;;7.60;99.90;;;;;;5033080;28;20845;-76
2024/02/04 08:42:40;;;;;;;11.03;4.93;;;7.60;99.90;;;;;;5033503;28;20464;-76
2024/02/04 08:45:09;;;;;;;10.17;3.80;;;7.60;99.90;;;;;;5031623;28;20486;-76
2024/02/04 08:47:37;;;;;;;8.17;4.03;;;7.60;99.90;;;;;;5033715;28;20485;-77
2024/02/04 08:50:07;;;;;;;9.20;3.33;;;7.60;99.90;;;;;;5033150;28;20499;-76
2024/02/04 08:52:35;;;;;;;11.30;2.90;;;7.60;99.90;;;;;;5032915;28;20438;-77
2024/02/04 08:55:06;;;;;;;10.70;3.27;;;7.70;99.90;;;;;;5032262;28;20466;-77
2024/02/04 08:57:35;;;;;;;14.33;4.43;;;7.70;99.90;;;;;;5033519;28;20530;-76
2024/02/04 09:00:04;;;;;;;9.70;3.77;;;7.70;99.90;;;;;;5031788;28;20911;-76
2024/02/04 09:02:34;;;;;;;11.20;3.83;;;7.70;99.90;;;;;;5033189;28;20467;-77
2024/02/04 09:05:02;;;;;;;9.13;3.57;;;7.70;99.90;;;;;;5031815;28;20473;-77
2024/02/04 09:07:31;;;;;;;10.40;3.37;;;7.80;99.90;;;;;;5033022;28;20851;-77
2024/02/04 09:10:01;;;;;;;13.77;3.73;;;7.80;99.90;;;;;;5032180;28;20438;-76
2024/02/04 09:12:30;;;;;;;7.97;3.93;;;7.80;99.90;;;;;;5031586;28;20843;-77
2024/02/04 09:15:00;;;;;;;8.30;3.47;;;7.80;99.90;;;;;;5034775;28;20474;-77
2024/02/04 09:17:28;;;;;;;9.67;3.80;;;7.80;99.90;;;;;;5036949;28;20442;-77
2024/02/04 09:19:57;;;;;;;11.20;3.73;;;7.80;99.90;;;;;;5035285;28;20515;-77
2024/02/04 09:22:25;;;;;;;9.47;3.57;;;7.90;99.90;;;;;;5036566;28;20441;-76
2024/02/04 09:24:53;;;;;;;16.77;5.00;;;7.90;99.90;;;;;;5036591;28;20959;-77
2024/02/04 09:27:22;;;;;;;10.10;3.30;;;7.90;99.90;;;;;;5035118;28;20454;-76
2024/02/04 09:29:50;;;;;;;15.10;4.03;;;7.90;99.90;;;;;;5035108;28;20541;-76
2024/02/04 09:32:20;;;;;;;12.07;4.20;;;7.90;99.90;;;;;;5035025;28;20454;-76
2024/02/04 09:34:48;;;;;;;9.63;4.13;;;8.00;99.90;;;;;;5035325;28;20549;-76
2024/02/04 09:37:17;;;;;;;8.73;3.53;;;8.00;99.90;;;;;;5036079;28;20535;-77
2024/02/04 09:39:45;;;;;;;8.17;3.30;;;8.00;99.90;;;;;;5035464;28;20454;-77
2024/02/04 09:42:23;;;;;;;9.53;3.80;;;8.00;99.90;;;;;;5034939;28;20454;-76
2024/02/04 09:44:51;;;;;;;14.80;4.30;;;8.10;99.90;;;;;;5034813;28;20866;-76
2024/02/04 09:47:21;;;;;;;15.53;4.80;;;8.10;99.90;;;;;;5034920;28;20486;-76
2024/02/04 09:49:50;;;;;;;12.97;3.80;;;8.10;99.90;;;;;;5034651;28;20545;-76
2024/02/04 09:52:21;;;;;;;8.00;3.70;;;8.10;99.90;;;;;;5034580;28;20457;-77
2024/02/04 09:54:53;;;;;;;8.40;3.73;;;8.20;99.90;;;;;;5034789;28;20467;-76
2024/02/04 09:57:22;;;;;;;9.37;3.63;;;8.20;99.90;;;;;;5034470;28;20533;-76
2024/02/04 09:59:50;;;;;;;9.17;3.53;;;8.20;99.90;;;;;;5036023;28;20967;-76
2024/02/04 10:02:19;;;;;;;7.60;2.80;;;8.20;99.90;;;;;;5034426;28;20863;-76
2024/02/04 10:04:50;;;;;;;10.07;4.13;;;8.30;99.90;;;;;;5034226;28;20482;-76
2024/02/04 10:07:19;;;;;;;10.53;4.70;;;8.30;99.90;;;;;;5034308;28;21091;-76
2024/02/04 10:09:48;;;;;;;9.80;3.93;;;8.30;99.90;;;;;;5035900;28;20477;-76
2024/02/04 10:12:17;;;;;;;11.17;3.97;;;8.40;99.90;;;;;;5034243;28;20470;-76
2024/02/04 10:14:45;;;;;;;11.23;3.70;;;8.40;99.90;;;;;;5034365;28;20887;-76
2024/02/04 10:17:16;;;;;;;10.20;4.90;;;8.40;99.90;;;;;;5034767;28;20813;-76
2024/02/04 10:19:44;;;;;;;7.70;3.50;;;8.50;99.90;;;;;;5035743;28;20485;-75
2024/02/04 10:22:16;;;;;;;18.40;4.50;;;8.60;99.90;;;;;;5034110;28;20457;-76
2024/02/04 10:24:46;;;;;;;8.83;4.10;;;8.60;99.90;;;;;;5035683;28;20504;-76
2024/02/04 10:27:16;;;;;;;9.83;4.17;;;8.60;99.90;;;;;;5033894;28;20485;-77
2024/02/04 10:29:57;;;;;;;10.00;4.03;;;8.60;99.90;;;;;;5035513;28;20767;-77
2024/02/04 10:32:25;;;;;;;11.80;4.87;;;8.70;99.90;;;;;;5033976;28;20868;-76
2024/02/04 10:34:54;;;;;;;10.83;4.47;;;8.70;99.90;;;;;;5035108;28;20455;-76
2024/02/04 10:37:23;;;;;;;10.73;4.13;;;8.70;99.90;;;;;;5034885;28;20932;-76
2024/02/04 10:39:55;;;;;;;7.10;4.07;;;8.70;99.90;;;;;;5033717;28;20446;-76
2024/02/04 10:42:26;;;;;;;10.03;4.37;;;8.70;99.90;;;;;;5033662;28;20435;-76
2024/02/04 10:44:55;;;;;;;10.60;4.17;;;8.80;99.90;;;;;;5034747;28;20987;-76
2024/02/04 10:47:25;;;;;;;8.60;3.60;;;8.80;99.90;;;;;;5033451;28;20443;-76
2024/02/04 10:49:54;;;;;;;11.83;4.50;;;8.80;99.90;;;;;;5035171;28;20470;-76
2024/02/04 10:52:28;;;;;;;11.47;4.10;;;8.80;99.90;;;;;;5034203;28;20469;-76
2024/02/04 10:54:57;;;;;;;7.90;4.10;;;8.80;99.90;;;;;;5033413;28;20529;-76
2024/02/04 10:57:26;;;;;;;9.67;4.40;;;8.90;99.90;;;;;;5033385;28;20446;-76
2024/02/04 10:59:55;;;;;;;9.97;4.87;;;8.90;99.90;;;;;;5034846;28;20439;-76
2024/02/04 11:02:24;;;;;;;11.07;4.43;;;8.90;99.90;;;;;;5033246;28;21007;-76
2024/02/04 11:04:55;;;;;;;5.67;3.37;;;8.90;99.90;;;;;;5033090;28;20471;-76
2024/02/04 11:07:26;;;;;;;8.30;4.70;;;9.00;99.90;;;;;;5033118;28;20550;-76
2024/02/04 11:09:54;;;;;;;7.17;3.60;;;9.00;99.90;;;;;;5033218;28;20496;-76
2024/02/04 11:12:24;;;;;;;9.23;4.03;;;9.00;99.90;;;;;;5032854;28;20554;-76
2024/02/04 11:14:58;;;;;;;11.70;4.83;;;9.10;99.90;;;;;;5032910;28;20470;-76
2024/02/04 11:17:44;;;;;;;7.27;4.07;;;9.10;99.90;;;;;;5033394;28;20439;-76
2024/02/04 11:20:26;;;;;;;9.40;4.97;;;9.10;99.90;;;;;;5033143;28;20501;-76
2024/02/04 11:23:15;;;;;;;12.87;5.00;;;9.10;99.90;;;;;;5032887;28;20443;-76
2024/02/04 11:25:47;;;;;;;12.30;5.20;;;9.10;99.90;;;;;;5032685;28;20467;-76
2024/02/04 11:28:17;;;;;;;11.00;5.17;;;9.10;99.90;;;;;;5032947;28;20447;-76
2024/02/04 11:30:46;;;;;;;9.07;4.63;;;9.20;99.90;;;;;;5032643;28;20455;-76
2024/02/04 11:33:19;;;;;;;9.50;4.30;;;9.20;99.90;;;;;;5033753;28;20438;-76
2024/02/04 11:35:48;;;;;;;8.83;4.30;;;9.20;99.90;;;;;;5033861;28;20426;-75
2024/02/04 11:38:20;;;;;;;8.43;4.57;;;9.20;99.90;;;;;;5032572;28;20453;-76
2024/02/04 11:40:49;;;;;;;10.10;4.23;;;9.20;99.90;;;;;;5032549;28;20444;-76
2024/02/04 11:43:17;;;;;;;10.10;4.70;;;9.30;99.90;;;;;;5032483;28;20454;-76
2024/02/04 11:45:46;;;;;;;6.70;4.07;;;9.30;99.90;;;;;;5032359;28;20571;-76
2024/02/04 11:48:16;;;;;;;10.87;4.30;;;9.30;99.90;;;;;;5032764;28;20574;-76
2024/02/04 11:50:52;;;;;;;10.17;4.50;;;9.30;99.90;;;;;;5032297;28;20459;-76
2024/02/04 11:53:22;;;;;;;9.37;4.00;;;9.30;99.90;;;;;;5033449;28;20502;-76
2024/02/04 11:55:53;;;;;;;7.20;4.03;;;9.30;99.90;;;;;;5033468;28;20439;-76
2024/02/04 11:58:23;;;;;;;9.63;3.77;;;9.30;99.90;;;;;;5032344;28;20435;-75
2024/02/04 12:00:57;;;;;;;6.80;3.97;;;9.40;99.90;;;;;;5032470;28;20483;-77
2024/02/04 12:03:32;;;;;;;6.77;4.10;;;9.40;99.90;;;;;;5034155;28;20807;-76
2024/02/04 12:06:01;;;;;;;10.40;4.30;;;9.40;99.90;;;;;;5032083;28;20502;-76
2024/02/04 12:08:33;;;;;;;10.30;4.00;;;9.40;99.90;;;;;;5032121;28;20497;-77
2024/02/04 12:11:02;;;;;;;6.17;3.53;;;9.40;99.90;;;;;;5033442;28;20534;-76
2024/02/04 12:13:32;;;;;;;7.67;3.40;;;9.50;99.90;;;;;;5032115;28;20479;-76
2024/02/04 12:16:00;;;;;;;5.90;3.80;;;9.50;99.90;;;;;;5031916;28;20826;-76
2024/02/04 12:18:28;;;;;;;9.70;3.67;;;9.50;99.90;;;;;;5032239;28;20859;-76
2024/02/04 12:20:57;;;;;;;7.30;3.77;;;9.50;99.90;;;;;;5032220;28;20443;-76
2024/02/04 12:23:26;;;;;;;7.93;3.23;;;9.40;99.90;;;;;;5033324;28;20986;-76
2024/02/04 12:25:56;;;;;;;6.87;3.60;;;9.50;99.90;;;;;;5033598;28;20521;-77
2024/02/04 12:28:25;;;;;;;7.63;3.70;;;9.40;99.90;;;;;;5034068;28;20429;-77
2024/02/04 12:30:56;;;;;;;8.57;4.10;;;9.40;99.90;;;;;;5033226;28;20535;-77
2024/02/04 12:33:24;;;;;;;6.30;3.63;;;9.40;99.90;;;;;;5033447;28;20419;-77
2024/02/04 12:35:55;;;;;;;11.70;3.67;;;9.40;99.90;;;;;;5032449;28;20442;-76
2024/02/04 12:38:24;;;;;;;10.63;3.70;;;9.40;99.90;;;;;;5034021;28;20419;-76
2024/02/04 12:40:53;;;;;;;8.30;3.83;;;9.50;99.90;;;;;;5032763;28;20457;-76
2024/02/04 12:43:22;;;;;;;6.73;3.40;;;9.40;99.90;;;;;;5033538;28;20463;-76
2024/02/04 12:45:50;;;;;;;7.97;3.50;;;9.40;99.90;;;;;;5031802;28;20473;-77
2024/02/04 12:48:23;;;;;;;12.73;3.53;;;9.40;99.90;;;;;;5034151;28;20434;-76
2024/02/04 12:50:51;;;;;;;10.40;3.97;;;9.40;99.90;;;;;;5037495;28;20595;-76
2024/02/04 12:53:20;;;;;;;8.20;3.53;;;9.40;99.90;;;;;;5035856;28;20497;-76
2024/02/04 12:55:49;;;;;;;10.07;3.30;;;9.40;99.90;;;;;;5037254;28;20427;-76
2024/02/04 12:58:18;;;;;;;6.87;3.60;;;9.40;99.90;;;;;;5036408;28;20443;-76
2024/02/04 13:00:48;;;;;;;5.53;2.73;;;9.40;99.90;;;;;;5038325;28;20442;-77